To NAV CANADA Home Page Login to a new session Search on AWWS site Feedback and Comments Disclaimer Vers la page française équivalente Tips FAQ What's new on the site To the Forecasts and Observations / NOTAM section To "File a Flight Plan" website Publications and other links Update of the User's profile FIC Telephone Numbers My Weather Data Folder Route Weather Data Regional Weather Data Local Weather Data To the Forecasts and Observations / NOTAM section
Request Generated 04/24/2014 at 17:47:02 UTC . Weather information available at that time is displayed.

METAR/TAF

FORT ST. JOHN/BC    

METAR CYXJ 241700Z 33005KT 15SM BKN018 00/M03 A2972 RMK SC5 SLP098=
METAR CYXJ 241600Z 33010KT 15SM FEW015 SCT180 M01/M04 A2972 RMK
SC2AC1 SLP098=
METAR CYXJ 241500Z 32007KT 15SM FEW020 SCT180 M02/M05 A2973 RMK
SC2AC2 SLP100=

TAF CYXJ 241238Z 2413/2501 30005KT P6SM SCT020 TEMPO 2413/2501 BKN020
BECMG 2419/2421 06007KT
RMK NXT FCST BY 241900Z=
Your time UTC time
Weather data provided by Environment Canada and NAV CANADA